sensor_id;sensor_type;location;lat;lon;timestamp;P1;durP1;ratioP1;P2;durP2;ratioP2
60718;SDS011;46567;51.660;5.824;2024-02-26T00:01:40;2.4;;;1.9;;
60718;SDS011;46567;51.660;5.824;2024-02-26T00:06:40;3.3;;;2.1;;
60718;SDS011;46567;51.660;5.824;2024-02-26T00:11:40;2.4;;;1.8;;
60718;SDS011;46567;51.660;5.824;2024-02-26T00:16:40;2.7;;;1.9;;
60718;SDS011;46567;51.660;5.824;2024-02-26T00:21:40;3.0;;;1.8;;
60718;SDS011;46567;51.660;5.824;2024-02-26T00:26:40;3.5;;;1.7;;
60718;SDS011;46567;51.660;5.824;2024-02-26T00:31:40;2.7;;;1.7;;
60718;SDS011;46567;51.660;5.824;2024-02-26T00:36:40;3.3;;;1.9;;
60718;SDS011;46567;51.660;5.824;2024-02-26T00:41:41;2.4;;;1.7;;
60718;SDS011;46567;51.660;5.824;2024-02-26T00:46:40;4.8;;;2.3;;
60718;SDS011;46567;51.660;5.824;2024-02-26T00:51:40;3.5;;;1.8;;
60718;SDS011;46567;51.660;5.824;2024-02-26T00:56:40;2.6;;;1.7;;
60718;SDS011;46567;51.660;5.824;2024-02-26T01:01:40;4.5;;;1.9;;
60718;SDS011;46567;51.660;5.824;2024-02-26T01:06:40;3.4;;;2.6;;
60718;SDS011;46567;51.660;5.824;2024-02-26T01:11:40;4.7;;;1.9;;
60718;SDS011;46567;51.660;5.824;2024-02-26T01:16:40;2.3;;;1.9;;
60718;SDS011;46567;51.660;5.824;2024-02-26T01:21:40;4.2;;;1.9;;
60718;SDS011;46567;51.660;5.824;2024-02-26T01:26:40;2.5;;;2.2;;
60718;SDS011;46567;51.660;5.824;2024-02-26T01:31:40;3.2;;;2.0;;
60718;SDS011;46567;51.660;5.824;2024-02-26T01:36:40;3.3;;;2.0;;
60718;SDS011;46567;51.660;5.824;2024-02-26T01:41:40;3.0;;;1.9;;
60718;SDS011;46567;51.660;5.824;2024-02-26T01:46:40;4.1;;;2.5;;
60718;SDS011;46567;51.660;5.824;2024-02-26T01:51:42;3.6;;;2.2;;
60718;SDS011;46567;51.660;5.824;2024-02-26T01:56:40;3.8;;;2.1;;
60718;SDS011;46567;51.660;5.824;2024-02-26T02:01:40;2.8;;;2.0;;
60718;SDS011;46567;51.660;5.824;2024-02-26T02:06:40;4.3;;;2.8;;
60718;SDS011;46567;51.660;5.824;2024-02-26T02:11:40;4.5;;;2.4;;
60718;SDS011;46567;51.660;5.824;2024-02-26T02:16:40;3.9;;;2.4;;
60718;SDS011;46567;51.660;5.824;2024-02-26T02:21:40;2.8;;;2.3;;
60718;SDS011;46567;51.660;5.824;2024-02-26T02:26:40;3.2;;;2.2;;
60718;SDS011;46567;51.660;5.824;2024-02-26T02:31:40;3.0;;;2.2;;
60718;SDS011;46567;51.660;5.824;2024-02-26T02:36:48;4.0;;;2.2;;
60718;SDS011;46567;51.660;5.824;2024-02-26T02:41:40;4.0;;;3.0;;
60718;SDS011;46567;51.660;5.824;2024-02-26T02:46:40;3.6;;;2.3;;
60718;SDS011;46567;51.660;5.824;2024-02-26T02:51:40;3.7;;;2.1;;
60718;SDS011;46567;51.660;5.824;2024-02-26T02:56:40;3.0;;;2.0;;
60718;SDS011;46567;51.660;5.824;2024-02-26T03:01:40;3.1;;;2.0;;
60718;SDS011;46567;51.660;5.824;2024-02-26T03:06:40;2.5;;;2.1;;
60718;SDS011;46567;51.660;5.824;2024-02-26T03:11:40;5.3;;;2.3;;
60718;SDS011;46567;51.660;5.824;2024-02-26T03:16:40;3.8;;;2.3;;
60718;SDS011;46567;51.660;5.824;2024-02-26T03:21:40;4.3;;;2.5;;
60718;SDS011;46567;51.660;5.824;2024-02-26T03:26:40;3.4;;;2.2;;
60718;SDS011;46567;51.660;5.824;2024-02-26T03:31:40;4.2;;;2.0;;
60718;SDS011;46567;51.660;5.824;2024-02-26T03:36:40;2.8;;;1.8;;
60718;SDS011;46567;51.660;5.824;2024-02-26T03:41:40;2.7;;;2.0;;
60718;SDS011;46567;51.660;5.824;2024-02-26T03:56:40;2.6;;;2.0;;
60718;SDS011;46567;51.660;5.824;2024-02-26T04:01:44;2.8;;;2.3;;
60718;SDS011;46567;51.660;5.824;2024-02-26T04:06:43;4.1;;;2.5;;
60718;SDS011;46567;51.660;5.824;2024-02-26T04:11:40;3.0;;;2.2;;
60718;SDS011;46567;51.660;5.824;2024-02-26T04:16:40;3.1;;;2.3;;
60718;SDS011;46567;51.660;5.824;2024-02-26T04:21:41;4.1;;;2.1;;
60718;SDS011;46567;51.660;5.824;2024-02-26T04:26:40;3.7;;;2.5;;
60718;SDS011;46567;51.660;5.824;2024-02-26T04:31:40;3.9;;;2.8;;
60718;SDS011;46567;51.660;5.824;2024-02-26T04:36:40;3.6;;;2.5;;
60718;SDS011;46567;51.660;5.824;2024-02-26T04:41:40;3.4;;;2.1;;
60718;SDS011;46567;51.660;5.824;2024-02-26T04:46:40;3.2;;;2.1;;
60718;SDS011;46567;51.660;5.824;2024-02-26T04:51:40;3.7;;;2.1;;
60718;SDS011;46567;51.660;5.824;2024-02-26T04:56:40;3.5;;;2.3;;
60718;SDS011;46567;51.660;5.824;2024-02-26T05:01:40;3.8;;;2.1;;
60718;SDS011;46567;51.660;5.824;2024-02-26T05:06:40;3.0;;;2.0;;
60718;SDS011;46567;51.660;5.824;2024-02-26T05:11:40;3.9;;;2.3;;
60718;SDS011;46567;51.660;5.824;2024-02-26T05:16:40;2.8;;;2.0;;
60718;SDS011;46567;51.660;5.824;2024-02-26T05:26:40;3.1;;;1.9;;
60718;SDS011;46567;51.660;5.824;2024-02-26T05:31:41;3.5;;;2.0;;
60718;SDS011;46567;51.660;5.824;2024-02-26T05:36:40;2.0;;;1.7;;
60718;SDS011;46567;51.660;5.824;2024-02-26T05:41:40;3.4;;;2.3;;
60718;SDS011;46567;51.660;5.824;2024-02-26T05:46:40;2.9;;;2.3;;
60718;SDS011;46567;51.660;5.824;2024-02-26T05:51:40;3.4;;;2.5;;
60718;SDS011;46567;51.660;5.824;2024-02-26T05:56:40;3.7;;;2.7;;
60718;SDS011;46567;51.660;5.824;2024-02-26T06:01:40;3.6;;;2.6;;
60718;SDS011;46567;51.660;5.824;2024-02-26T06:06:40;3.7;;;2.7;;
60718;SDS011;46567;51.660;5.824;2024-02-26T06:16:40;4.5;;;3.2;;
60718;SDS011;46567;51.660;5.824;2024-02-26T06:21:40;4.3;;;3.0;;
60718;SDS011;46567;51.660;5.824;2024-02-26T06:26:40;4.2;;;3.1;;
60718;SDS011;46567;51.660;5.824;2024-02-26T06:31:40;5.6;;;3.3;;
60718;SDS011;46567;51.660;5.824;2024-02-26T06:36:40;3.3;;;2.8;;
60718;SDS011;46567;51.660;5.824;2024-02-26T06:41:40;4.4;;;3.0;;
60718;SDS011;46567;51.660;5.824;2024-02-26T06:46:40;4.9;;;3.0;;
60718;SDS011;46567;51.660;5.824;2024-02-26T06:51:40;3.9;;;3.0;;
60718;SDS011;46567;51.660;5.824;2024-02-26T06:56:40;3.9;;;3.1;;
60718;SDS011;46567;51.660;5.824;2024-02-26T07:01:41;3.7;;;2.7;;
60718;SDS011;46567;51.660;5.824;2024-02-26T07:06:40;4.0;;;3.2;;
60718;SDS011;46567;51.660;5.824;2024-02-26T07:11:40;4.5;;;3.3;;
60718;SDS011;46567;51.660;5.824;2024-02-26T07:16:40;4.4;;;2.8;;
60718;SDS011;46567;51.660;5.824;2024-02-26T07:21:40;4.3;;;2.3;;
60718;SDS011;46567;51.660;5.824;2024-02-26T07:26:40;3.5;;;2.4;;
60718;SDS011;46567;51.660;5.824;2024-02-26T07:31:40;2.7;;;2.0;;
60718;SDS011;46567;51.660;5.824;2024-02-26T07:36:40;3.4;;;2.4;;
60718;SDS011;46567;51.660;5.824;2024-02-26T07:41:40;5.3;;;2.6;;
60718;SDS011;46567;51.660;5.824;2024-02-26T07:46:40;2.7;;;2.0;;
60718;SDS011;46567;51.660;5.824;2024-02-26T07:51:40;3.4;;;2.2;;
60718;SDS011;46567;51.660;5.824;2024-02-26T07:56:40;3.2;;;2.6;;
60718;SDS011;46567;51.660;5.824;2024-02-26T08:01:40;5.3;;;2.5;;
60718;SDS011;46567;51.660;5.824;2024-02-26T08:06:40;3.3;;;2.2;;
60718;SDS011;46567;51.660;5.824;2024-02-26T08:11:40;4.0;;;2.6;;
60718;SDS011;46567;51.660;5.824;2024-02-26T08:21:40;3.7;;;2.6;;
60718;SDS011;46567;51.660;5.824;2024-02-26T08:26:40;3.7;;;2.6;;
60718;SDS011;46567;51.660;5.824;2024-02-26T08:31:40;3.8;;;2.6;;
60718;SDS011;46567;51.660;5.824;2024-02-26T08:36:40;4.2;;;2.8;;
60718;SDS011;46567;51.660;5.824;2024-02-26T08:41:40;9.2;;;3.1;;
60718;SDS011;46567;51.660;5.824;2024-02-26T08:46:40;5.3;;;3.1;;
60718;SDS011;46567;51.660;5.824;2024-02-26T08:51:41;4.1;;;2.5;;
60718;SDS011;46567;51.660;5.824;2024-02-26T08:56:40;4.1;;;2.8;;
60718;SDS011;46567;51.660;5.824;2024-02-26T09:01:40;3.3;;;2.8;;
60718;SDS011;46567;51.660;5.824;2024-02-26T09:06:40;3.6;;;2.7;;
60718;SDS011;46567;51.660;5.824;2024-02-26T09:11:40;4.7;;;3.0;;
60718;SDS011;46567;51.660;5.824;2024-02-26T09:16:40;4.1;;;2.8;;
60718;SDS011;46567;51.660;5.824;2024-02-26T09:21:41;4.9;;;3.2;;
60718;SDS011;46567;51.660;5.824;2024-02-26T09:26:40;4.3;;;3.1;;
60718;SDS011;46567;51.660;5.824;2024-02-26T09:31:40;4.8;;;3.6;;
60718;SDS011;46567;51.660;5.824;2024-02-26T09:36:40;5.1;;;3.2;;
60718;SDS011;46567;51.660;5.824;2024-02-26T09:41:40;5.0;;;3.9;;
60718;SDS011;46567;51.660;5.824;2024-02-26T09:46:40;5.8;;;3.4;;
60718;SDS011;46567;51.660;5.824;2024-02-26T09:51:40;5.5;;;3.9;;
60718;SDS011;46567;51.660;5.824;2024-02-26T09:56:40;6.6;;;4.4;;
60718;SDS011;46567;51.660;5.824;2024-02-26T10:01:40;7.9;;;4.6;;
60718;SDS011;46567;51.660;5.824;2024-02-26T10:11:40;7.4;;;5.0;;
60718;SDS011;46567;51.660;5.824;2024-02-26T10:16:40;9.0;;;5.4;;
60718;SDS011;46567;51.660;5.824;2024-02-26T10:21:40;7.3;;;4.9;;
60718;SDS011;46567;51.660;5.824;2024-02-26T10:26:45;8.7;;;5.4;;
60718;SDS011;46567;51.660;5.824;2024-02-26T10:31:42;10.5;;;6.0;;
60718;SDS011;46567;51.660;5.824;2024-02-26T10:36:40;7.9;;;5.3;;
60718;SDS011;46567;51.660;5.824;2024-02-26T10:41:40;9.5;;;5.4;;
60718;SDS011;46567;51.660;5.824;2024-02-26T10:46:40;8.1;;;5.4;;
60718;SDS011;46567;51.660;5.824;2024-02-26T10:51:41;11.4;;;5.6;;
60718;SDS011;46567;51.660;5.824;2024-02-26T10:56:42;8.4;;;5.0;;
60718;SDS011;46567;51.660;5.824;2024-02-26T11:01:40;8.2;;;5.3;;
60718;SDS011;46567;51.660;5.824;2024-02-26T11:06:40;10.4;;;5.6;;
60718;SDS011;46567;51.660;5.824;2024-02-26T11:11:40;9.5;;;5.8;;
60718;SDS011;46567;51.660;5.824;2024-02-26T11:16:40;9.2;;;5.8;;
60718;SDS011;46567;51.660;5.824;2024-02-26T11:21:40;9.0;;;5.8;;
60718;SDS011;46567;51.660;5.824;2024-02-26T11:26:45;10.5;;;5.2;;
60718;SDS011;46567;51.660;5.824;2024-02-26T11:31:40;10.1;;;5.9;;
60718;SDS011;46567;51.660;5.824;2024-02-26T11:36:40;10.3;;;6.2;;
60718;SDS011;46567;51.660;5.824;2024-02-26T11:41:40;10.3;;;6.1;;
60718;SDS011;46567;51.660;5.824;2024-02-26T11:51:40;15.0;;;7.8;;
60718;SDS011;46567;51.660;5.824;2024-02-26T11:56:40;13.1;;;7.5;;
60718;SDS011;46567;51.660;5.824;2024-02-26T12:01:49;15.7;;;6.9;;
60718;SDS011;46567;51.660;5.824;2024-02-26T12:06:46;12.8;;;7.3;;
60718;SDS011;46567;51.660;5.824;2024-02-26T12:11:41;18.3;;;8.6;;
60718;SDS011;46567;51.660;5.824;2024-02-26T12:16:40;16.0;;;8.5;;
60718;SDS011;46567;51.660;5.824;2024-02-26T12:21:40;15.0;;;8.5;;
60718;SDS011;46567;51.660;5.824;2024-02-26T12:26:41;12.9;;;7.8;;
60718;SDS011;46567;51.660;5.824;2024-02-26T12:31:40;20.2;;;9.2;;
60718;SDS011;46567;51.660;5.824;2024-02-26T12:36:40;15.3;;;8.8;;
60718;SDS011;46567;51.660;5.824;2024-02-26T12:41:40;15.8;;;7.8;;
60718;SDS011;46567;51.660;5.824;2024-02-26T12:46:40;19.1;;;8.5;;
60718;SDS011;46567;51.660;5.824;2024-02-26T12:51:40;11.4;;;6.8;;
60718;SDS011;46567;51.660;5.824;2024-02-26T12:56:40;13.7;;;7.5;;
60718;SDS011;46567;51.660;5.824;2024-02-26T13:01:40;14.0;;;7.5;;
60718;SDS011;46567;51.660;5.824;2024-02-26T13:06:40;12.7;;;6.1;;
60718;SDS011;46567;51.660;5.824;2024-02-26T13:11:40;12.4;;;6.1;;
60718;SDS011;46567;51.660;5.824;2024-02-26T13:16:40;10.8;;;6.1;;
60718;SDS011;46567;51.660;5.824;2024-02-26T13:21:40;9.0;;;5.0;;
60718;SDS011;46567;51.660;5.824;2024-02-26T13:26:40;9.1;;;5.0;;
60718;SDS011;46567;51.660;5.824;2024-02-26T13:31:40;10.2;;;6.0;;
60718;SDS011;46567;51.660;5.824;2024-02-26T13:36:40;9.5;;;5.0;;
60718;SDS011;46567;51.660;5.824;2024-02-26T13:41:40;10.4;;;5.2;;
60718;SDS011;46567;51.660;5.824;2024-02-26T13:46:40;8.3;;;4.8;;
60718;SDS011;46567;51.660;5.824;2024-02-26T13:51:41;7.6;;;4.4;;
60718;SDS011;46567;51.660;5.824;2024-02-26T13:56:40;8.6;;;4.6;;
60718;SDS011;46567;51.660;5.824;2024-02-26T14:01:40;8.2;;;5.0;;
60718;SDS011;46567;51.660;5.824;2024-02-26T14:06:40;8.2;;;4.8;;
60718;SDS011;46567;51.660;5.824;2024-02-26T14:11:40;7.9;;;4.4;;
60718;SDS011;46567;51.660;5.824;2024-02-26T14:16:40;8.3;;;4.6;;
60718;SDS011;46567;51.660;5.824;2024-02-26T14:21:40;8.8;;;4.8;;
60718;SDS011;46567;51.660;5.824;2024-02-26T14:26:40;8.1;;;4.8;;
60718;SDS011;46567;51.660;5.824;2024-02-26T14:31:40;9.0;;;5.1;;
60718;SDS011;46567;51.660;5.824;2024-02-26T14:36:40;7.5;;;4.4;;
60718;SDS011;46567;51.660;5.824;2024-02-26T14:41:40;7.3;;;4.8;;
60718;SDS011;46567;51.660;5.824;2024-02-26T14:46:40;8.3;;;4.7;;
60718;SDS011;46567;51.660;5.824;2024-02-26T14:51:40;7.2;;;4.8;;
60718;SDS011;46567;51.660;5.824;2024-02-26T14:56:40;8.5;;;4.6;;
60718;SDS011;46567;51.660;5.824;2024-02-26T15:01:40;7.3;;;4.7;;
60718;SDS011;46567;51.660;5.824;2024-02-26T15:06:40;9.0;;;4.7;;
60718;SDS011;46567;51.660;5.824;2024-02-26T15:11:40;8.3;;;4.5;;
60718;SDS011;46567;51.660;5.824;2024-02-26T15:16:40;8.5;;;4.7;;
60718;SDS011;46567;51.660;5.824;2024-02-26T15:21:42;9.6;;;5.2;;
60718;SDS011;46567;51.660;5.824;2024-02-26T15:26:40;9.1;;;5.2;;
60718;SDS011;46567;51.660;5.824;2024-02-26T15:31:40;11.4;;;5.0;;
60718;SDS011;46567;51.660;5.824;2024-02-26T15:36:40;8.7;;;4.7;;
60718;SDS011;46567;51.660;5.824;2024-02-26T15:41:40;8.7;;;4.5;;
60718;SDS011;46567;51.660;5.824;2024-02-26T15:46:40;8.8;;;4.8;;
60718;SDS011;46567;51.660;5.824;2024-02-26T15:51:40;8.6;;;4.6;;
60718;SDS011;46567;51.660;5.824;2024-02-26T15:56:40;7.7;;;4.9;;
60718;SDS011;46567;51.660;5.824;2024-02-26T16:01:40;7.3;;;4.6;;
60718;SDS011;46567;51.660;5.824;2024-02-26T16:06:47;7.6;;;4.4;;
60718;SDS011;46567;51.660;5.824;2024-02-26T16:11:40;8.2;;;4.7;;
60718;SDS011;46567;51.660;5.824;2024-02-26T16:16:47;9.0;;;4.7;;
60718;SDS011;46567;51.660;5.824;2024-02-26T16:21:40;7.9;;;4.6;;
60718;SDS011;46567;51.660;5.824;2024-02-26T16:26:40;8.9;;;4.6;;
60718;SDS011;46567;51.660;5.824;2024-02-26T16:31:40;7.8;;;4.2;;
60718;SDS011;46567;51.660;5.824;2024-02-26T16:36:40;7.7;;;4.4;;
60718;SDS011;46567;51.660;5.824;2024-02-26T16:41:40;7.5;;;4.7;;
60718;SDS011;46567;51.660;5.824;2024-02-26T16:46:40;7.3;;;4.3;;
60718;SDS011;46567;51.660;5.824;2024-02-26T16:56:40;8.6;;;4.1;;
60718;SDS011;46567;51.660;5.824;2024-02-26T17:01:43;7.0;;;4.4;;
60718;SDS011;46567;51.660;5.824;2024-02-26T17:06:40;9.4;;;4.8;;
60718;SDS011;46567;51.660;5.824;2024-02-26T17:11:40;8.9;;;4.8;;
60718;SDS011;46567;51.660;5.824;2024-02-26T17:16:40;7.7;;;4.2;;
60718;SDS011;46567;51.660;5.824;2024-02-26T17:21:40;8.6;;;4.9;;
60718;SDS011;46567;51.660;5.824;2024-02-26T17:26:40;7.4;;;4.7;;
60718;SDS011;46567;51.660;5.824;2024-02-26T17:31:40;9.3;;;4.9;;
60718;SDS011;46567;51.660;5.824;2024-02-26T17:36:41;6.1;;;3.9;;
60718;SDS011;46567;51.660;5.824;2024-02-26T17:41:40;10.3;;;5.2;;
60718;SDS011;46567;51.660;5.824;2024-02-26T17:46:40;8.7;;;5.1;;
60718;SDS011;46567;51.660;5.824;2024-02-26T17:51:40;9.5;;;5.2;;
60718;SDS011;46567;51.660;5.824;2024-02-26T17:56:40;8.6;;;5.2;;
60718;SDS011;46567;51.660;5.824;2024-02-26T18:01:40;8.4;;;5.7;;
60718;SDS011;46567;51.660;5.824;2024-02-26T18:06:40;11.0;;;6.1;;
60718;SDS011;46567;51.660;5.824;2024-02-26T18:11:42;9.6;;;6.0;;
60718;SDS011;46567;51.660;5.824;2024-02-26T18:16:40;9.5;;;6.6;;
60718;SDS011;46567;51.660;5.824;2024-02-26T18:21:40;9.5;;;6.4;;
60718;SDS011;46567;51.660;5.824;2024-02-26T18:26:41;11.2;;;7.0;;
60718;SDS011;46567;51.660;5.824;2024-02-26T18:31:40;10.3;;;7.0;;
60718;SDS011;46567;51.660;5.824;2024-02-26T18:36:41;9.9;;;6.2;;
60718;SDS011;46567;51.660;5.824;2024-02-26T18:41:40;11.4;;;7.1;;
60718;SDS011;46567;51.660;5.824;2024-02-26T18:51:41;11.4;;;6.8;;
60718;SDS011;46567;51.660;5.824;2024-02-26T18:56:40;12.3;;;7.1;;
60718;SDS011;46567;51.660;5.824;2024-02-26T19:01:40;14.9;;;8.2;;
60718;SDS011;46567;51.660;5.824;2024-02-26T19:06:40;14.5;;;7.8;;
60718;SDS011;46567;51.660;5.824;2024-02-26T19:11:40;12.8;;;7.2;;
60718;SDS011;46567;51.660;5.824;2024-02-26T19:16:40;14.0;;;8.0;;
60718;SDS011;46567;51.660;5.824;2024-02-26T19:21:40;13.4;;;7.9;;
60718;SDS011;46567;51.660;5.824;2024-02-26T19:26:40;15.9;;;7.5;;
60718;SDS011;46567;51.660;5.824;2024-02-26T19:31:40;13.3;;;7.5;;
60718;SDS011;46567;51.660;5.824;2024-02-26T19:36:40;12.4;;;6.8;;
60718;SDS011;46567;51.660;5.824;2024-02-26T19:41:40;12.3;;;7.1;;
60718;SDS011;46567;51.660;5.824;2024-02-26T19:46:40;14.4;;;8.1;;
60718;SDS011;46567;51.660;5.824;2024-02-26T19:51:40;13.2;;;6.9;;
60718;SDS011;46567;51.660;5.824;2024-02-26T19:56:40;11.5;;;6.6;;
60718;SDS011;46567;51.660;5.824;2024-02-26T20:01:40;12.4;;;7.1;;
60718;SDS011;46567;51.660;5.824;2024-02-26T20:06:41;12.7;;;7.7;;
60718;SDS011;46567;51.660;5.824;2024-02-26T20:11:40;13.6;;;7.3;;
60718;SDS011;46567;51.660;5.824;2024-02-26T20:16:40;12.5;;;7.0;;
60718;SDS011;46567;51.660;5.824;2024-02-26T20:21:40;12.3;;;7.3;;
60718;SDS011;46567;51.660;5.824;2024-02-26T20:26:40;11.9;;;7.3;;
60718;SDS011;46567;51.660;5.824;2024-02-26T20:31:40;12.3;;;7.2;;
60718;SDS011;46567;51.660;5.824;2024-02-26T20:36:40;14.3;;;6.9;;
60718;SDS011;46567;51.660;5.824;2024-02-26T20:41:40;11.6;;;6.5;;
60718;SDS011;46567;51.660;5.824;2024-02-26T20:46:41;13.8;;;7.9;;
60718;SDS011;46567;51.660;5.824;2024-02-26T20:51:41;13.9;;;7.6;;
60718;SDS011;46567;51.660;5.824;2024-02-26T20:56:40;13.6;;;7.7;;
60718;SDS011;46567;51.660;5.824;2024-02-26T21:01:40;14.8;;;8.1;;
60718;SDS011;46567;51.660;5.824;2024-02-26T21:06:40;15.5;;;8.6;;
60718;SDS011;46567;51.660;5.824;2024-02-26T21:11:41;14.4;;;7.6;;
60718;SDS011;46567;51.660;5.824;2024-02-26T21:16:41;17.1;;;8.0;;
60718;SDS011;46567;51.660;5.824;2024-02-26T21:21:40;14.2;;;8.1;;
60718;SDS011;46567;51.660;5.824;2024-02-26T21:26:40;15.8;;;8.2;;
60718;SDS011;46567;51.660;5.824;2024-02-26T21:31:40;16.1;;;8.1;;
60718;SDS011;46567;51.660;5.824;2024-02-26T21:36:41;16.2;;;8.1;;
60718;SDS011;46567;51.660;5.824;2024-02-26T21:41:40;13.7;;;7.8;;
60718;SDS011;46567;51.660;5.824;2024-02-26T21:46:40;15.3;;;8.0;;
60718;SDS011;46567;51.660;5.824;2024-02-26T21:51:42;15.1;;;8.0;;
60718;SDS011;46567;51.660;5.824;2024-02-26T21:56:40;16.4;;;7.8;;
60718;SDS011;46567;51.660;5.824;2024-02-26T22:01:41;17.1;;;8.9;;
60718;SDS011;46567;51.660;5.824;2024-02-26T22:06:41;13.9;;;7.4;;
60718;SDS011;46567;51.660;5.824;2024-02-26T22:11:41;14.5;;;8.2;;
60718;SDS011;46567;51.660;5.824;2024-02-26T22:16:40;16.6;;;8.1;;
60718;SDS011;46567;51.660;5.824;2024-02-26T22:21:40;16.1;;;9.0;;
60718;SDS011;46567;51.660;5.824;2024-02-26T22:26:41;15.4;;;8.3;;
60718;SDS011;46567;51.660;5.824;2024-02-26T22:31:41;16.9;;;8.9;;
60718;SDS011;46567;51.660;5.824;2024-02-26T22:36:41;15.2;;;8.5;;
60718;SDS011;46567;51.660;5.824;2024-02-26T22:41:41;14.7;;;8.1;;
60718;SDS011;46567;51.660;5.824;2024-02-26T22:46:41;19.3;;;8.8;;
60718;SDS011;46567;51.660;5.824;2024-02-26T22:51:41;16.0;;;8.1;;
60718;SDS011;46567;51.660;5.824;2024-02-26T22:56:40;16.3;;;8.6;;
60718;SDS011;46567;51.660;5.824;2024-02-26T23:01:40;14.6;;;8.4;;
60718;SDS011;46567;51.660;5.824;2024-02-26T23:06:41;16.7;;;8.9;;
60718;SDS011;46567;51.660;5.824;2024-02-26T23:11:40;14.8;;;7.8;;
60718;SDS011;46567;51.660;5.824;2024-02-26T23:16:41;14.3;;;7.8;;
60718;SDS011;46567;51.660;5.824;2024-02-26T23:21:40;16.3;;;8.5;;
60718;SDS011;46567;51.660;5.824;2024-02-26T23:31:40;15.6;;;8.7;;
60718;SDS011;46567;51.660;5.824;2024-02-26T23:36:41;17.2;;;9.5;;
60718;SDS011;46567;51.660;5.824;2024-02-26T23:41:40;19.6;;;8.5;;
60718;SDS011;46567;51.660;5.824;2024-02-26T23:46:40;16.5;;;8.5;;
60718;SDS011;46567;51.660;5.824;2024-02-26T23:51:40;15.6;;;8.6;;
60718;SDS011;46567;51.660;5.824;2024-02-26T23:56:41;16.0;;;9.0;;
